createdAt,value
2023-05-04T00:00:20.425Z,16.20
2023-05-04T00:01:22.697Z,16.19
2023-05-04T00:02:24.866Z,16.18
2023-05-04T00:03:27.060Z,16.19
2023-05-04T00:04:29.347Z,16.18
2023-05-04T00:05:33.414Z,16.19
2023-05-04T00:06:35.869Z,16.20
2023-05-04T00:07:38.048Z,16.19
2023-05-04T00:08:40.540Z,16.18
2023-05-04T00:09:42.600Z,16.18
2023-05-04T00:10:45.167Z,16.18
2023-05-04T00:11:47.630Z,16.17
2023-05-04T00:12:50.374Z,16.16
2023-05-04T00:13:53.011Z,16.16
2023-05-04T00:14:58.343Z,16.15
2023-05-04T00:17:09.895Z,16.24
2023-05-04T00:18:11.862Z,16.09
2023-05-04T00:19:15.950Z,16.08
2023-05-04T00:20:18.711Z,16.07
2023-05-04T00:21:21.348Z,16.07
2023-05-04T00:22:23.568Z,16.07
2023-05-04T00:23:27.193Z,16.06
2023-05-04T00:24:31.891Z,16.08
2023-05-04T00:25:37.083Z,16.07
2023-05-04T00:26:39.855Z,16.05
2023-05-04T00:27:47.154Z,16.05
2023-05-04T00:28:51.109Z,16.04
2023-05-04T00:29:53.449Z,16.04
2023-05-04T00:30:56.085Z,16.03
2023-05-04T00:31:59.296Z,16.02
2023-05-04T00:33:01.672Z,16.03
2023-05-04T00:34:03.922Z,16.01
2023-05-04T00:35:06.907Z,16.00
2023-05-04T00:36:09.819Z,16.00
2023-05-04T00:37:12.033Z,15.98
2023-05-04T00:38:15.546Z,15.98
2023-05-04T00:39:17.760Z,15.95
2023-05-04T00:41:30.164Z,16.06
2023-05-04T00:42:32.406Z,15.91
2023-05-04T00:43:34.456Z,15.92
2023-05-04T00:44:36.627Z,15.90
2023-05-04T00:45:39.914Z,15.90
2023-05-04T00:46:42.393Z,15.90
2023-05-04T00:48:04.670Z,15.90
2023-05-04T00:49:07.358Z,15.90
2023-05-04T00:50:11.937Z,15.90
2023-05-04T00:51:15.407Z,15.90
2023-05-04T00:52:18.952Z,15.88
2023-05-04T00:53:21.852Z,15.88
2023-05-04T00:54:25.261Z,15.87
2023-05-04T00:55:27.609Z,15.86
2023-05-04T00:56:33.038Z,15.86
2023-05-04T00:57:35.249Z,15.85
2023-05-04T00:58:37.419Z,15.85
2023-05-04T00:59:39.669Z,15.84
2023-05-04T01:00:41.968Z,15.86
2023-05-04T01:01:45.063Z,15.85
2023-05-04T01:02:47.271Z,15.84
2023-05-04T01:03:52.424Z,15.85
2023-05-04T01:04:55.058Z,15.84
2023-05-04T01:06:06.952Z,15.84
2023-05-04T01:07:27.088Z,15.83
2023-05-04T01:08:31.583Z,15.82
2023-05-04T01:12:15.774Z,15.89
2023-05-04T01:13:21.385Z,15.77
2023-05-04T01:14:24.890Z,15.77
2023-05-04T01:15:28.296Z,15.77
2023-05-04T01:16:31.525Z,15.77
2023-05-04T01:17:34.063Z,15.77
2023-05-04T01:18:36.322Z,15.77
2023-05-04T01:19:38.384Z,15.76
2023-05-04T01:20:40.637Z,15.76
2023-05-04T01:21:42.996Z,15.76
2023-05-04T01:22:45.068Z,15.76
2023-05-04T01:23:48.193Z,15.76
2023-05-04T01:24:50.786Z,15.76
2023-05-04T01:26:02.543Z,15.76
2023-05-04T01:27:08.421Z,15.76
2023-05-04T01:28:14.173Z,15.75
2023-05-04T01:30:33.317Z,15.86
2023-05-04T01:31:36.923Z,15.73
2023-05-04T01:32:41.098Z,15.73
2023-05-04T01:33:44.924Z,15.72
2023-05-04T01:34:47.854Z,15.72
2023-05-04T01:35:50.975Z,15.71
2023-05-04T01:36:54.122Z,15.71
2023-05-04T01:37:56.930Z,15.70
2023-05-04T01:38:59.797Z,15.70
2023-05-04T01:40:02.186Z,15.69
2023-05-04T01:41:06.258Z,15.69
2023-05-04T01:42:08.560Z,15.69
2023-05-04T01:43:11.391Z,15.68
2023-05-04T01:44:14.321Z,15.69
2023-05-04T01:45:16.488Z,15.69
2023-05-04T01:46:20.757Z,15.68
2023-05-04T01:47:23.588Z,15.68
2023-05-04T01:48:27.966Z,15.69
2023-05-04T01:49:30.372Z,15.69
2023-05-04T01:50:32.772Z,15.69
2023-05-04T01:51:34.948Z,15.69
2023-05-04T01:52:37.161Z,15.70
2023-05-04T01:53:40.868Z,15.70
2023-05-04T01:54:43.552Z,15.69
2023-05-04T01:55:45.723Z,15.68
2023-05-04T01:56:49.502Z,15.67
2023-05-04T01:57:51.810Z,15.65
2023-05-04T01:58:54.040Z,15.66
2023-05-04T01:59:56.308Z,15.65
2023-05-04T02:01:00.248Z,15.64
2023-05-04T02:02:03.013Z,15.63
2023-05-04T02:03:05.382Z,15.61
2023-05-04T02:04:09.163Z,15.62
2023-05-04T02:05:13.308Z,15.62
2023-05-04T02:06:15.785Z,15.60
2023-05-04T02:07:17.938Z,15.61
2023-05-04T02:08:20.242Z,15.61
2023-05-04T02:09:22.443Z,15.60
2023-05-04T02:10:24.678Z,15.60
2023-05-04T02:11:26.919Z,15.57
2023-05-04T02:12:29.312Z,15.57
2023-05-04T02:13:31.683Z,15.56
2023-05-04T02:14:33.959Z,15.55
2023-05-04T02:15:36.144Z,15.55
2023-05-04T02:16:38.946Z,15.55
2023-05-04T02:17:41.158Z,15.55
2023-05-04T02:18:43.883Z,15.55
2023-05-04T02:19:46.064Z,15.53
2023-05-04T02:20:51.735Z,15.53
2023-05-04T02:21:54.145Z,15.53
2023-05-04T02:22:57.075Z,15.51
2023-05-04T02:24:01.632Z,15.51
2023-05-04T02:25:04.212Z,15.51
2023-05-04T02:26:07.453Z,15.49
2023-05-04T02:27:09.615Z,15.49
2023-05-04T02:28:12.199Z,15.48
2023-05-04T02:29:14.347Z,15.47
2023-05-04T02:30:16.953Z,15.45
2023-05-04T02:31:19.259Z,15.45
2023-05-04T02:32:21.663Z,15.44
2023-05-04T02:33:25.280Z,15.42
2023-05-04T02:34:28.969Z,15.41
2023-05-04T02:35:31.340Z,15.42
2023-05-04T02:36:34.084Z,15.41
2023-05-04T02:37:36.162Z,15.40
2023-05-04T02:38:38.844Z,15.39
2023-05-04T02:39:41.246Z,15.37
2023-05-04T02:40:43.517Z,15.37
2023-05-04T02:41:45.675Z,15.37
2023-05-04T02:42:47.830Z,15.37
2023-05-04T02:44:59.288Z,15.46
2023-05-04T02:46:01.686Z,15.34
2023-05-04T02:47:03.981Z,15.34
2023-05-04T02:48:06.267Z,15.32
2023-05-04T02:49:08.546Z,15.33
2023-05-04T02:50:11.217Z,15.32
2023-05-04T02:51:13.381Z,15.32
2023-05-04T02:52:15.561Z,15.32
2023-05-04T02:53:19.886Z,15.31
2023-05-04T02:54:22.227Z,15.30
2023-05-04T02:55:24.499Z,15.31
2023-05-04T02:57:39.026Z,15.41
2023-05-04T02:58:40.934Z,15.28
2023-05-04T02:59:43.091Z,15.26
2023-05-04T03:00:45.250Z,15.27
2023-05-04T03:01:48.178Z,15.27
2023-05-04T03:02:51.197Z,15.27
2023-05-04T03:03:53.448Z,15.25
2023-05-04T03:04:55.610Z,15.27
2023-05-04T03:05:58.025Z,15.28
2023-05-04T03:07:00.430Z,15.27
2023-05-04T03:08:02.985Z,15.27
2023-05-04T03:09:05.290Z,15.27
2023-05-04T03:10:09.458Z,15.27
2023-05-04T03:11:11.566Z,15.25
2023-05-04T03:12:13.835Z,15.23
2023-05-04T03:13:16.005Z,15.23
2023-05-04T03:14:18.253Z,15.22
2023-05-04T03:15:21.169Z,15.22
2023-05-04T03:16:23.432Z,15.21
2023-05-04T03:17:26.300Z,15.20
2023-05-04T03:19:49.852Z,15.26
2023-05-04T03:20:53.079Z,15.32
2023-05-04T03:21:56.405Z,15.35
2023-05-04T03:22:58.544Z,15.39
2023-05-04T03:24:01.005Z,15.42
2023-05-04T03:25:04.218Z,15.46
2023-05-04T03:26:07.374Z,15.49
2023-05-04T03:27:09.509Z,15.53
2023-05-04T03:28:12.260Z,15.56
2023-05-04T03:29:14.526Z,15.60
2023-05-04T03:30:17.555Z,15.62
2023-05-04T03:31:20.636Z,15.64
2023-05-04T03:32:24.541Z,15.67
2023-05-04T03:33:27.383Z,15.69
2023-05-04T03:34:30.867Z,15.69
2023-05-04T03:35:35.532Z,15.71
2023-05-04T03:36:38.637Z,15.73
2023-05-04T03:37:41.487Z,15.74
2023-05-04T03:38:43.924Z,15.73
2023-05-04T03:39:46.729Z,15.74
2023-05-04T03:40:50.214Z,15.75
2023-05-04T03:41:52.875Z,15.79
2023-05-04T03:42:55.519Z,15.78
2023-05-04T03:43:58.732Z,15.80
2023-05-04T03:45:03.723Z,15.82
2023-05-04T03:46:05.406Z,15.85
2023-05-04T03:47:07.921Z,15.85
2023-05-04T03:48:10.447Z,15.85
2023-05-04T03:49:13.766Z,15.86
2023-05-04T03:50:16.220Z,15.87
2023-05-04T03:51:19.555Z,15.90
2023-05-04T03:52:21.887Z,15.92
2023-05-04T03:53:25.721Z,15.92
2023-05-04T03:54:28.047Z,15.90
2023-05-04T03:55:30.209Z,15.88
2023-05-04T03:56:32.974Z,15.86
2023-05-04T03:57:35.165Z,15.85
2023-05-04T03:59:52.832Z,15.98
2023-05-04T04:00:55.297Z,15.87
2023-05-04T04:01:57.505Z,15.90
2023-05-04T04:02:59.878Z,15.92
2023-05-04T04:04:03.821Z,15.92
2023-05-04T04:05:07.645Z,15.94
2023-05-04T04:06:11.840Z,15.94
2023-05-04T04:07:13.920Z,15.96
2023-05-04T04:08:16.085Z,16.00
2023-05-04T04:09:18.342Z,16.02
2023-05-04T04:10:20.725Z,16.04
2023-05-04T04:11:23.491Z,16.08
2023-05-04T04:12:26.013Z,16.11
2023-05-04T04:13:28.479Z,16.14
2023-05-04T04:14:31.063Z,16.17
2023-05-04T04:15:33.100Z,16.21
2023-05-04T04:16:35.790Z,16.26
2023-05-04T04:17:38.889Z,16.28
2023-05-04T04:18:40.933Z,16.30
2023-05-04T04:19:44.188Z,16.29
2023-05-04T04:20:46.318Z,16.27
2023-05-04T04:21:48.963Z,16.26
2023-05-04T04:22:51.421Z,16.24
2023-05-04T04:23:56.672Z,16.21
2023-05-04T04:24:59.384Z,16.19
2023-05-04T04:26:02.592Z,16.17
2023-05-04T04:27:05.121Z,16.15
2023-05-04T04:28:07.274Z,16.13
2023-05-04T04:29:09.611Z,16.13
2023-05-04T04:30:13.017Z,16.12
2023-05-04T04:31:16.506Z,16.09
2023-05-04T04:32:18.684Z,16.08
2023-05-04T04:33:20.892Z,16.07
2023-05-04T04:34:23.145Z,16.07
2023-05-04T04:35:25.680Z,16.05
2023-05-04T04:36:27.963Z,16.06
2023-05-04T04:37:30.586Z,16.08
2023-05-04T04:38:32.759Z,16.09
2023-05-04T04:39:35.376Z,16.08
2023-05-04T04:40:40.823Z,16.08
2023-05-04T04:41:43.017Z,16.07
2023-05-04T04:42:45.113Z,16.06
2023-05-04T04:43:47.170Z,16.05
2023-05-04T04:44:49.251Z,16.04
2023-05-04T04:45:51.314Z,16.04
2023-05-04T04:46:53.764Z,16.03
2023-05-04T04:47:56.086Z,16.04
2023-05-04T04:48:58.198Z,16.04
2023-05-04T04:50:00.669Z,16.06
2023-05-04T04:51:03.270Z,16.07
2023-05-04T04:52:05.466Z,16.07
2023-05-04T04:53:07.758Z,16.08
2023-05-04T04:54:10.327Z,16.08
2023-05-04T04:55:12.889Z,16.09
2023-05-04T04:56:15.596Z,16.10
2023-05-04T04:57:17.900Z,16.10
2023-05-04T04:58:19.957Z,16.11
2023-05-04T04:59:21.942Z,16.12
2023-05-04T05:00:24.502Z,16.13
2023-05-04T05:01:26.766Z,16.16
2023-05-04T05:02:28.956Z,16.18
2023-05-04T05:03:31.594Z,16.20
2023-05-04T05:04:33.809Z,16.21
2023-05-04T05:05:36.051Z,16.22
2023-05-04T05:06:38.189Z,16.22
2023-05-04T05:07:40.311Z,16.22
2023-05-04T05:08:42.612Z,16.22
2023-05-04T05:09:44.693Z,16.25
2023-05-04T05:10:46.960Z,16.27
2023-05-04T05:11:49.048Z,16.28
2023-05-04T05:12:51.255Z,16.30
2023-05-04T05:13:53.769Z,16.31
2023-05-04T05:14:56.092Z,16.32
2023-05-04T05:15:58.458Z,16.33
2023-05-04T05:17:01.034Z,16.35
2023-05-04T05:18:03.713Z,16.38
2023-05-04T05:19:05.860Z,16.42
2023-05-04T05:20:08.972Z,16.46
2023-05-04T05:21:11.301Z,16.47
2023-05-04T05:22:14.617Z,16.50
2023-05-04T05:23:16.828Z,16.52
2023-05-04T05:24:19.496Z,16.55
2023-05-04T05:25:22.322Z,16.56
2023-05-04T05:26:24.798Z,16.59
2023-05-04T05:27:27.387Z,16.59
2023-05-04T05:28:29.650Z,16.61
2023-05-04T05:29:31.811Z,16.63
2023-05-04T05:30:33.986Z,16.64
2023-05-04T05:31:37.139Z,16.66
2023-05-04T05:32:39.286Z,16.68
2023-05-04T05:33:41.416Z,16.70
2023-05-04T05:34:44.225Z,16.74
2023-05-04T05:35:46.286Z,16.81
2023-05-04T05:36:48.484Z,16.86
2023-05-04T05:37:51.104Z,16.94
2023-05-04T05:38:53.077Z,17.00
2023-05-04T05:39:55.374Z,17.09
2023-05-04T05:40:57.660Z,17.15
2023-05-04T05:41:59.733Z,17.25
2023-05-04T05:43:02.621Z,17.32
2023-05-04T05:44:05.234Z,17.42
2023-05-04T05:45:09.589Z,17.53
2023-05-04T05:46:12.759Z,17.63
2023-05-04T05:47:15.798Z,17.74
2023-05-04T05:48:18.291Z,17.85
2023-05-04T05:49:20.936Z,17.97
2023-05-04T05:50:23.718Z,18.09
2023-05-04T05:51:26.383Z,18.23
2023-05-04T05:52:28.461Z,18.33
2023-05-04T05:53:30.804Z,18.43
2023-05-04T05:54:35.009Z,18.49
2023-05-04T05:55:38.177Z,18.57
2023-05-04T05:56:40.404Z,18.62
2023-05-04T05:57:44.047Z,18.67
2023-05-04T05:58:52.852Z,18.69
2023-05-04T05:59:55.129Z,18.72
2023-05-04T06:00:58.282Z,18.74
2023-05-04T06:02:00.273Z,18.73
2023-05-04T06:03:02.574Z,18.71
2023-05-04T06:04:05.128Z,18.73
2023-05-04T06:05:08.364Z,18.70
2023-05-04T06:06:10.879Z,18.69
2023-05-04T06:07:12.954Z,18.68
2023-05-04T06:08:14.906Z,18.67
2023-05-04T06:09:17.402Z,18.65
2023-05-04T06:10:20.284Z,18.61
2023-05-04T06:11:22.364Z,18.59
2023-05-04T06:12:24.681Z,18.59
2023-05-04T06:13:27.135Z,18.59
2023-05-04T06:14:29.310Z,18.58
2023-05-04T06:15:31.412Z,18.58
2023-05-04T06:16:34.067Z,18.58
2023-05-04T06:17:37.387Z,18.56
2023-05-04T06:18:41.928Z,18.56
2023-05-04T06:19:44.042Z,18.56
2023-05-04T06:20:46.609Z,18.54
2023-05-04T06:21:49.267Z,18.53
2023-05-04T06:22:52.083Z,18.52
2023-05-04T06:23:54.335Z,18.52
2023-05-04T06:25:01.515Z,18.52
2023-05-04T06:26:00.661Z,18.49
2023-05-04T06:27:02.833Z,18.50
2023-05-04T06:28:04.914Z,18.52
2023-05-04T06:29:06.966Z,18.50
2023-05-04T06:30:11.613Z,18.49
2023-05-04T06:31:27.206Z,18.48
2023-05-04T06:32:29.301Z,18.46
2023-05-04T06:33:31.895Z,18.46
2023-05-04T06:34:34.577Z,18.45
2023-05-04T06:35:36.855Z,18.45
2023-05-04T06:36:39.638Z,18.45
2023-05-04T06:37:41.822Z,18.45
2023-05-04T06:38:44.960Z,18.45
2023-05-04T06:39:47.195Z,18.44
2023-05-04T06:40:49.345Z,18.45
2023-05-04T06:41:54.516Z,18.47
2023-05-04T06:42:56.640Z,18.48
2023-05-04T06:43:58.959Z,18.47
2023-05-04T06:45:01.475Z,18.47
2023-05-04T06:46:05.058Z,18.47
2023-05-04T06:47:08.787Z,18.46
2023-05-04T06:48:11.013Z,18.46
2023-05-04T06:49:13.287Z,18.46
2023-05-04T06:50:15.367Z,18.47
2023-05-04T06:51:17.372Z,18.48
2023-05-04T06:52:19.955Z,18.47
2023-05-04T06:53:22.143Z,18.48
2023-05-04T06:54:24.342Z,18.50
2023-05-04T06:55:26.422Z,18.51
2023-05-04T06:56:28.616Z,18.51
2023-05-04T06:57:30.903Z,18.52
2023-05-04T06:58:36.746Z,18.52
2023-05-04T06:59:39.563Z,18.54
2023-05-04T07:00:47.356Z,18.55
2023-05-04T07:01:49.560Z,18.56
2023-05-04T07:03:11.946Z,18.57
2023-05-04T07:04:14.815Z,18.59
2023-05-04T07:05:19.088Z,18.63
2023-05-04T07:06:26.489Z,18.67
2023-05-04T07:07:29.166Z,18.73
2023-05-04T07:08:42.247Z,18.79
2023-05-04T07:09:46.144Z,18.86
2023-05-04T07:10:48.389Z,18.94
2023-05-04T07:11:50.542Z,19.01
2023-05-04T07:12:52.813Z,19.07
2023-05-04T07:13:55.011Z,19.16
2023-05-04T07:14:58.129Z,19.23
2023-05-04T07:16:01.940Z,19.31
2023-05-04T07:17:04.168Z,19.40
2023-05-04T07:18:06.746Z,19.49
2023-05-04T07:20:20.083Z,19.77
2023-05-04T07:21:28.382Z,19.75
2023-05-04T07:22:27.911Z,19.84
2023-05-04T07:23:33.262Z,19.92
2023-05-04T07:24:35.682Z,20.01
2023-05-04T07:25:37.934Z,20.09
2023-05-04T07:26:40.104Z,20.17
2023-05-04T07:27:42.482Z,20.24
2023-05-04T07:28:45.146Z,20.33
2023-05-04T07:29:47.364Z,20.37
2023-05-04T07:30:49.551Z,20.45
2023-05-04T07:31:51.989Z,20.51
2023-05-04T07:32:55.675Z,20.56
2023-05-04T07:34:01.872Z,20.61
2023-05-04T07:35:09.602Z,20.67
2023-05-04T07:36:13.840Z,20.74
2023-05-04T07:37:22.418Z,20.79
2023-05-04T07:38:29.101Z,20.83
2023-05-04T07:39:37.328Z,20.89
2023-05-04T07:40:40.359Z,20.94
2023-05-04T07:41:45.928Z,20.99
2023-05-04T07:42:53.823Z,21.04
2023-05-04T07:43:57.078Z,21.10
2023-05-04T07:45:01.892Z,21.15
2023-05-04T07:46:08.568Z,21.20
2023-05-04T07:47:10.830Z,21.26
2023-05-04T07:48:17.809Z,21.32
2023-05-04T07:49:20.587Z,21.36
2023-05-04T07:50:26.599Z,21.43
2023-05-04T07:51:30.373Z,21.48
2023-05-04T07:52:32.662Z,21.52
2023-05-04T07:53:36.581Z,21.57
2023-05-04T07:54:42.064Z,21.61
2023-05-04T07:55:44.621Z,21.64
2023-05-04T07:56:47.388Z,21.67
2023-05-04T07:57:50.059Z,21.72
2023-05-04T07:58:52.141Z,21.74
2023-05-04T07:59:55.852Z,21.79
2023-05-04T08:01:00.000Z,21.84
2023-05-04T08:02:02.213Z,21.87
2023-05-04T08:03:05.007Z,21.93
2023-05-04T08:04:08.346Z,21.96
2023-05-04T08:05:10.858Z,22.00
2023-05-04T08:06:13.585Z,22.04
2023-05-04T08:07:15.733Z,22.08
2023-05-04T08:08:18.188Z,22.10
2023-05-04T08:09:22.011Z,22.13
2023-05-04T08:10:24.274Z,22.17
2023-05-04T08:11:26.442Z,22.19
2023-05-04T08:12:28.999Z,22.21
2023-05-04T08:13:31.243Z,22.23
2023-05-04T08:14:33.537Z,22.24
2023-05-04T08:15:36.701Z,22.23
2023-05-04T08:16:39.038Z,22.24
2023-05-04T08:17:41.320Z,22.26
2023-05-04T08:18:44.626Z,22.27
2023-05-04T08:19:46.710Z,22.28
2023-05-04T08:20:48.670Z,22.31
2023-05-04T08:21:50.775Z,22.31
2023-05-04T08:22:54.062Z,22.33
2023-05-04T08:23:57.349Z,22.36
2023-05-04T08:25:00.078Z,22.39
2023-05-04T08:26:04.942Z,22.41
2023-05-04T08:27:09.517Z,22.43
2023-05-04T08:28:13.452Z,22.44
2023-05-04T08:29:16.772Z,22.47
2023-05-04T08:30:19.015Z,22.48
2023-05-04T08:31:21.127Z,22.48
2023-05-04T08:32:23.806Z,22.48
2023-05-04T08:33:26.091Z,22.47
2023-05-04T08:34:28.240Z,22.45
2023-05-04T08:35:30.865Z,22.47
2023-05-04T08:36:33.789Z,22.46
2023-05-04T08:37:35.840Z,22.48
2023-05-04T08:38:38.001Z,22.50
2023-05-04T08:39:41.959Z,22.53
2023-05-04T08:40:44.574Z,22.55
2023-05-04T08:41:46.717Z,22.59
2023-05-04T08:42:49.299Z,22.62
2023-05-04T08:43:51.981Z,22.64
2023-05-04T08:44:55.850Z,22.66
2023-05-04T08:47:08.064Z,22.79
2023-05-04T08:48:10.794Z,22.67
2023-05-04T08:49:13.250Z,22.68
2023-05-04T08:50:16.469Z,22.70
2023-05-04T08:51:18.639Z,22.70
2023-05-04T08:52:26.665Z,22.70
2023-05-04T08:53:30.513Z,22.71
2023-05-04T08:54:34.429Z,22.72
2023-05-04T08:55:37.110Z,22.71
2023-05-04T08:56:40.034Z,22.71
2023-05-04T08:57:43.634Z,22.71
2023-05-04T08:58:49.163Z,22.70
2023-05-04T08:59:53.037Z,22.69
2023-05-04T09:00:57.040Z,22.68
2023-05-04T09:02:00.759Z,22.65
2023-05-04T09:03:04.349Z,22.67
2023-05-04T09:04:06.823Z,22.66
2023-05-04T09:05:11.152Z,22.64
2023-05-04T09:06:14.465Z,22.64
2023-05-04T09:07:18.080Z,22.63
2023-05-04T09:08:21.028Z,22.63
2023-05-04T09:09:25.603Z,22.64
2023-05-04T09:10:29.645Z,22.65
2023-05-04T09:11:32.316Z,22.66
2023-05-04T09:12:34.508Z,22.67
2023-05-04T09:13:36.947Z,22.70
2023-05-04T09:14:41.328Z,22.73
2023-05-04T09:15:54.556Z,22.76
2023-05-04T09:16:57.036Z,22.79
2023-05-04T09:18:01.998Z,22.83
2023-05-04T09:19:07.110Z,22.86
2023-05-04T09:20:10.763Z,22.88
2023-05-04T09:21:13.112Z,22.92
2023-05-04T09:22:16.706Z,22.94
2023-05-04T09:23:18.991Z,22.95
2023-05-04T09:25:54.938Z,23.07
2023-05-04T09:27:15.128Z,22.94
2023-05-04T09:28:19.121Z,22.93
2023-05-04T09:29:22.025Z,22.93
2023-05-04T09:30:25.315Z,22.91
2023-05-04T09:31:27.510Z,22.91
2023-05-04T09:32:30.954Z,22.90
2023-05-04T09:33:33.760Z,22.89
2023-05-04T09:34:36.010Z,22.90
2023-05-04T09:35:42.733Z,22.88
2023-05-04T09:36:45.239Z,22.88
2023-05-04T09:37:47.441Z,22.91
2023-05-04T09:38:49.643Z,22.92
2023-05-04T09:41:05.920Z,23.05
2023-05-04T09:42:12.442Z,22.94
2023-05-04T09:43:14.575Z,22.94
2023-05-04T09:44:19.143Z,22.97
2023-05-04T09:45:21.402Z,22.98
2023-05-04T09:46:23.848Z,22.99
2023-05-04T09:47:40.495Z,22.99
2023-05-04T09:48:53.817Z,23.01
2023-05-04T09:49:56.412Z,23.02
2023-05-04T09:51:00.158Z,23.03
2023-05-04T09:52:04.336Z,23.04
2023-05-04T09:53:07.789Z,23.06
2023-05-04T09:54:10.863Z,23.07
2023-05-04T09:55:14.714Z,23.08
2023-05-04T09:56:47.623Z,23.09
2023-05-04T09:57:49.716Z,23.10
2023-05-04T09:58:52.543Z,23.12
2023-05-04T09:59:56.048Z,23.12
2023-05-04T10:01:01.182Z,23.14
2023-05-04T10:02:18.164Z,23.14
2023-05-04T10:03:12.125Z,23.17
2023-05-04T10:04:15.017Z,23.16
2023-05-04T10:05:18.097Z,23.17
2023-05-04T10:06:27.950Z,23.16
2023-05-04T10:07:30.859Z,23.15
2023-05-04T10:08:33.678Z,23.14
2023-05-04T10:09:36.893Z,23.15
2023-05-04T10:10:39.066Z,23.15
2023-05-04T10:11:42.057Z,23.13
2023-05-04T10:12:45.120Z,23.13
2023-05-04T10:13:48.296Z,23.13
2023-05-04T10:14:51.912Z,23.12
2023-05-04T10:16:04.954Z,23.09
2023-05-04T10:17:36.229Z,23.09
2023-05-04T10:18:51.983Z,23.06
2023-05-04T10:20:19.214Z,23.06
2023-05-04T10:21:56.742Z,23.03
2023-05-04T10:23:30.650Z,23.01
2023-05-04T10:24:48.737Z,22.99
2023-05-04T10:26:15.678Z,22.98
2023-05-04T10:27:21.056Z,22.97
2023-05-04T10:28:38.998Z,22.94
2023-05-04T10:31:00.625Z,23.00
2023-05-04T10:32:04.680Z,22.84
2023-05-04T10:33:10.278Z,22.83
2023-05-04T10:35:55.010Z,22.89
2023-05-04T10:36:59.868Z,22.76
2023-05-04T10:38:03.919Z,22.74
2023-05-04T10:39:19.982Z,22.74
2023-05-04T10:40:38.661Z,22.75
2023-05-04T10:41:40.885Z,22.73
2023-05-04T10:42:44.840Z,22.71
2023-05-04T10:43:53.992Z,22.72
2023-05-04T10:44:58.625Z,22.70
2023-05-04T10:46:02.320Z,22.68
2023-05-04T10:47:07.126Z,22.66
2023-05-04T10:48:11.093Z,22.63
2023-05-04T10:49:16.203Z,22.62
2023-05-04T10:50:22.707Z,22.60
2023-05-04T10:51:32.589Z,22.60
2023-05-04T10:52:53.910Z,22.60
2023-05-04T10:53:56.502Z,22.59
2023-05-04T10:55:04.421Z,22.58
2023-05-04T10:56:23.515Z,22.58
2023-05-04T10:57:31.144Z,22.55
2023-05-04T10:58:37.876Z,22.55
2023-05-04T10:59:42.116Z,22.55
2023-05-04T11:00:47.283Z,22.55
2023-05-04T11:01:56.390Z,22.54
2023-05-04T11:03:05.209Z,22.53
2023-05-04T11:04:22.283Z,22.53
2023-05-04T11:05:27.748Z,22.49
2023-05-04T11:06:31.637Z,22.46
2023-05-04T11:07:45.183Z,22.41
2023-05-04T11:08:50.608Z,22.40
2023-05-04T11:09:54.525Z,22.37
2023-05-04T11:11:05.124Z,22.35
2023-05-04T11:12:13.741Z,22.34
2023-05-04T11:13:19.322Z,22.34
2023-05-04T11:14:32.054Z,22.34
2023-05-04T11:15:46.692Z,22.36
2023-05-04T11:16:55.529Z,22.36
2023-05-04T11:17:58.208Z,22.37
2023-05-04T11:19:07.295Z,22.37
2023-05-04T11:20:13.183Z,22.37
2023-05-04T11:21:25.673Z,22.36
2023-05-04T11:22:28.403Z,22.36
2023-05-04T11:23:32.204Z,22.36
2023-05-04T11:24:43.642Z,22.36
2023-05-04T11:25:47.158Z,22.35
2023-05-04T11:26:55.841Z,22.34
2023-05-04T11:27:59.262Z,22.34
2023-05-04T11:30:37.562Z,22.44
2023-05-04T11:31:41.373Z,22.30
2023-05-04T11:32:45.864Z,22.29
2023-05-04T11:33:50.817Z,22.28
2023-05-04T11:34:56.393Z,22.28
2023-05-04T11:35:59.863Z,22.28
2023-05-04T11:37:05.460Z,22.28
2023-05-04T11:38:10.429Z,22.27
2023-05-04T11:39:15.331Z,22.26
2023-05-04T11:40:20.584Z,22.26
2023-05-04T11:41:27.011Z,22.27
2023-05-04T11:42:32.553Z,22.28
2023-05-04T11:43:35.754Z,22.28
2023-05-04T11:44:40.564Z,22.28
2023-05-04T11:45:43.176Z,22.28
2023-05-04T11:46:46.530Z,22.28
2023-05-04T11:47:50.379Z,22.28
2023-05-04T11:48:52.852Z,22.28
2023-05-04T11:49:55.199Z,22.27
2023-05-04T11:52:14.306Z,22.38
2023-05-04T11:53:16.380Z,22.25
2023-05-04T11:54:20.249Z,22.25
2023-05-04T11:55:30.680Z,22.26
2023-05-04T11:56:43.604Z,22.26
2023-05-04T11:57:54.098Z,22.25
2023-05-04T11:59:03.470Z,22.26
2023-05-04T12:00:09.224Z,22.25
2023-05-04T12:01:15.084Z,22.25
2023-05-04T12:02:22.031Z,22.24
2023-05-04T12:03:39.805Z,22.22
2023-05-04T12:04:35.656Z,22.22
2023-05-04T12:05:52.321Z,22.21
2023-05-04T12:06:54.561Z,22.21
2023-05-04T12:07:58.072Z,22.20
2023-05-04T12:09:05.078Z,22.21
2023-05-04T12:10:11.433Z,22.20
2023-05-04T12:12:40.287Z,22.31
2023-05-04T12:13:45.718Z,22.19
2023-05-04T12:14:53.142Z,22.21
2023-05-04T12:15:56.401Z,22.22
2023-05-04T12:17:03.272Z,22.22
2023-05-04T12:18:06.427Z,22.22
2023-05-04T12:19:12.371Z,22.23
2023-05-04T12:21:51.165Z,22.32
2023-05-04T12:22:57.232Z,22.21
2023-05-04T12:24:09.317Z,22.21
2023-05-04T12:25:12.084Z,22.22
2023-05-04T12:26:19.665Z,22.21
2023-05-04T12:28:25.191Z,22.21
2023-05-04T12:29:29.672Z,22.21
2023-05-04T12:30:34.902Z,22.19
2023-05-04T12:31:39.489Z,22.18
2023-05-04T12:32:44.517Z,22.18
2023-05-04T12:33:48.876Z,22.17
2023-05-04T12:34:53.000Z,22.15
2023-05-04T12:37:17.981Z,22.25
2023-05-04T12:38:24.421Z,22.11
2023-05-04T12:39:26.586Z,22.10
2023-05-04T12:40:36.801Z,22.10
2023-05-04T12:41:40.567Z,22.09
2023-05-04T12:42:49.549Z,22.08
2023-05-04T12:43:52.255Z,22.08
2023-05-04T12:44:56.603Z,22.08
2023-05-04T12:46:01.789Z,22.08
2023-05-04T12:47:08.337Z,22.06
2023-05-04T12:48:15.512Z,22.06
2023-05-04T12:49:17.869Z,22.06
2023-05-04T12:50:20.638Z,22.05
2023-05-04T12:51:24.630Z,22.06
2023-05-04T12:52:27.246Z,22.05
2023-05-04T12:53:30.914Z,22.05
2023-05-04T12:54:35.518Z,22.04
2023-05-04T12:55:38.600Z,22.04
2023-05-04T12:56:42.775Z,22.05
2023-05-04T12:57:46.137Z,22.04
2023-05-04T12:58:48.700Z,22.03
2023-05-04T12:59:51.952Z,22.03
2023-05-04T13:00:55.865Z,22.05
2023-05-04T13:01:58.446Z,22.06
2023-05-04T13:03:01.245Z,22.06
2023-05-04T13:04:03.720Z,22.06
2023-05-04T13:05:07.645Z,22.07
2023-05-04T13:06:10.695Z,22.07
2023-05-04T13:07:13.052Z,22.07
2023-05-04T13:08:16.852Z,22.08
2023-05-04T13:09:19.309Z,22.10
2023-05-04T13:10:21.843Z,22.10
2023-05-04T13:11:24.143Z,22.11
2023-05-04T13:12:28.195Z,22.12
2023-05-04T13:13:35.748Z,22.13
2023-05-04T13:15:53.831Z,22.24
2023-05-04T13:16:59.566Z,22.13
2023-05-04T13:18:02.009Z,22.13
2023-05-04T13:19:10.917Z,22.15
2023-05-04T13:20:15.636Z,22.14
2023-05-04T13:21:26.020Z,22.16
2023-05-04T13:22:28.405Z,22.17
2023-05-04T13:23:31.702Z,22.17
2023-05-04T13:24:35.284Z,22.18
2023-05-04T13:25:40.865Z,22.19
2023-05-04T13:26:44.018Z,22.19
2023-05-04T13:27:47.005Z,22.20
2023-05-04T13:28:50.344Z,22.20
2023-05-04T13:29:52.744Z,22.20
2023-05-04T13:31:00.167Z,22.21
2023-05-04T13:32:02.717Z,22.22
2023-05-04T13:33:16.722Z,22.21
2023-05-04T13:34:13.086Z,22.22
2023-05-04T13:35:17.540Z,22.21
2023-05-04T13:36:21.530Z,22.21
2023-05-04T13:37:29.347Z,22.20
2023-05-04T13:38:34.735Z,22.20
2023-05-04T13:39:48.961Z,22.21
2023-05-04T13:40:57.039Z,22.20
2023-05-04T13:42:01.299Z,22.20
2023-05-04T13:43:03.964Z,22.21
2023-05-04T13:44:08.894Z,22.21
2023-05-04T13:45:16.086Z,22.19
2023-05-04T13:46:19.271Z,22.20
2023-05-04T13:47:24.644Z,22.20
2023-05-04T13:48:27.176Z,22.19
2023-05-04T13:49:38.082Z,22.19
2023-05-04T13:50:41.121Z,22.18
2023-05-04T13:53:03.555Z,22.25
2023-05-04T13:54:09.022Z,22.15
2023-05-04T13:55:11.403Z,22.14
2023-05-04T13:56:18.463Z,22.13
2023-05-04T13:57:20.866Z,22.13
2023-05-04T13:58:25.434Z,22.13
2023-05-04T13:59:28.690Z,22.12
2023-05-04T14:00:33.212Z,22.12
2023-05-04T14:01:36.023Z,22.11
2023-05-04T14:02:43.354Z,22.10
2023-05-04T14:03:45.844Z,22.10
2023-05-04T14:04:49.531Z,22.09
2023-05-04T14:05:57.308Z,22.08
2023-05-04T14:07:00.797Z,22.09
2023-05-04T14:09:19.274Z,22.18
2023-05-04T14:10:25.228Z,22.06
2023-05-04T14:11:28.269Z,22.06
2023-05-04T14:12:32.946Z,22.05
2023-05-04T14:13:36.133Z,22.06
2023-05-04T14:14:40.405Z,22.07
2023-05-04T14:15:42.701Z,22.07
2023-05-04T14:16:46.501Z,22.06